Weather at Parrsboro Airport [CLOSED]

Public forecast

Using degrees Celsius for public forecast. Weather courtesy of forecast.io.

Closest aviation weather report (METAR) to Parrsboro Airport

Closest report is CFB Greenwood, 35.8 nm (66.3 km) SW.

2024/04/24 12:00 (retrieved 53 minutes ago)

CYZX 241200Z 01003KT 15SM FEW100 BKN180 01/M01 A2991 RMK AC2AC3 DENSITY ALT -1518FT SLP129

Closest aviation forecast (TAF) to Parrsboro Airport

Closest forecast is CFB Greenwood, 35.8 nm (66.3 km) SW.

2024/04/24 12:42 (retrieved 11 minutes ago)

TAF CYZX 241140Z 2412/2512 VRB03KT P6SM BKN250 BECMG 2413/2415 31008KT FM241700 29012KT P6SM SCT150 BKN250 FM242000 28010KT P6SM BKN070 BKN150 FM242300 26008KT P6SM -RA OVC030 FM250200 25010G20KT 6SM -RA BR BKN015 OVC030 FM250500 28015G25KT 4SM -SHRASN BR OVC012 FM250700 28015G25KT P6SM OVC020 BECMG 2509/2511 SCT025 RMK NXT FCST BY 241800Z